createdAt,value
2022-11-10T00:01:07.699Z,100120.91
2022-11-10T00:03:35.603Z,100126.13
2022-11-10T00:06:04.085Z,100119.19
2022-11-10T00:08:31.117Z,100126.06
2022-11-10T00:10:58.100Z,100123.53
2022-11-10T00:13:29.706Z,100129.47
2022-11-10T00:16:18.175Z,100124.28
2022-11-10T00:18:45.126Z,100120.91
2022-11-10T00:21:12.944Z,100126.84
2022-11-10T00:23:39.717Z,100128.56
2022-11-10T00:26:14.781Z,100118.97
2022-11-10T00:28:42.018Z,100112.91
2022-11-10T00:31:09.282Z,100117.28
2022-11-10T00:33:37.985Z,100114.53
2022-11-10T00:36:05.114Z,100111.03
2022-11-10T00:38:31.880Z,100112.06
2022-11-10T00:41:00.102Z,100096.56
2022-11-10T00:43:27.678Z,100105.91
2022-11-10T00:45:54.683Z,100105.03
2022-11-10T00:48:21.554Z,100100.78
2022-11-10T00:50:48.240Z,100102.50
2022-11-10T00:53:15.050Z,100107.66
2022-11-10T00:55:42.135Z,100100.63
2022-11-10T00:58:09.256Z,100098.03
2022-11-10T01:00:35.937Z,100090.31
2022-11-10T01:03:02.721Z,100100.72
2022-11-10T01:05:36.630Z,100098.19
2022-11-10T01:08:03.451Z,100094.66
2022-11-10T01:10:30.324Z,100087.81
2022-11-10T01:12:56.978Z,100084.31
2022-11-10T01:15:27.569Z,100074.75
2022-11-10T01:17:56.016Z,100080.78
2022-11-10T01:20:23.472Z,100073.88
2022-11-10T01:22:50.398Z,100079.13
2022-11-10T01:25:17.292Z,100079.09
2022-11-10T01:27:44.078Z,100067.81
2022-11-10T01:30:11.281Z,100074.09
2022-11-10T01:32:38.254Z,100076.75
2022-11-10T01:35:05.936Z,100063.81
2022-11-10T01:37:32.625Z,100081.81
2022-11-10T01:39:59.393Z,100072.44
2022-11-10T01:42:28.458Z,100086.25
2022-11-10T01:45:20.116Z,100098.44
2022-11-10T01:47:46.928Z,100085.59
2022-11-10T01:50:13.655Z,100094.19
2022-11-10T01:52:41.029Z,100090.78
2022-11-10T01:55:08.148Z,100094.19
2022-11-10T01:57:35.549Z,100094.25
2022-11-10T02:00:02.496Z,100090.75
2022-11-10T02:02:33.488Z,100088.16
2022-11-10T02:05:01.994Z,100081.28
2022-11-10T02:07:28.956Z,100094.22
2022-11-10T02:09:55.829Z,100101.91
2022-11-10T02:12:37.234Z,100089.97
2022-11-10T02:15:05.526Z,100097.81
2022-11-10T02:17:32.413Z,100092.66
2022-11-10T02:20:05.155Z,100095.16
2022-11-10T02:22:32.727Z,100094.34
2022-11-10T02:24:59.917Z,100098.63
2022-11-10T02:27:26.666Z,100094.22
2022-11-10T02:29:53.424Z,100086.59
2022-11-10T02:32:20.256Z,100096.94
2022-11-10T02:34:46.926Z,100092.66
2022-11-10T02:37:13.807Z,100107.28
2022-11-10T02:39:40.428Z,100100.41
2022-11-10T02:42:10.527Z,100114.25
2022-11-10T02:44:40.831Z,100103.03
2022-11-10T02:47:07.927Z,100110.84
2022-11-10T02:49:34.604Z,100106.56
2022-11-10T02:52:01.351Z,100102.31
2022-11-10T02:54:27.942Z,100109.19
2022-11-10T02:56:54.593Z,100104.84
2022-11-10T02:59:21.315Z,100098.72
2022-11-10T03:01:47.899Z,100104.59
2022-11-10T03:04:14.642Z,100101.97
2022-11-10T03:06:41.260Z,100103.53
2022-11-10T03:09:07.963Z,100099.97
2022-11-10T03:11:34.658Z,100089.53
2022-11-10T03:14:02.569Z,100097.19
2022-11-10T03:16:30.165Z,100096.19
2022-11-10T03:18:56.870Z,100088.28
2022-11-10T03:21:23.552Z,100079.63
2022-11-10T03:23:50.229Z,100076.78
2022-11-10T03:26:16.840Z,100069.78
2022-11-10T03:28:43.493Z,100069.69
2022-11-10T03:31:10.203Z,100070.53
2022-11-10T03:33:36.857Z,100063.53
2022-11-10T03:36:03.767Z,100060.00
2022-11-10T03:38:30.384Z,100062.56
2022-11-10T03:41:18.117Z,100054.63
2022-11-10T03:43:43.705Z,100039.00
2022-11-10T03:46:11.103Z,100048.44
2022-11-10T03:48:37.774Z,100050.91
2022-11-10T03:51:04.562Z,100047.31
2022-11-10T03:53:31.149Z,100036.13
2022-11-10T03:56:01.428Z,100037.09
2022-11-10T03:58:28.144Z,100032.50
2022-11-10T04:00:55.237Z,100031.63
2022-11-10T07:29:15.420Z,100132.22
2022-11-10T07:31:42.133Z,100130.88
2022-11-10T07:34:10.138Z,100131.31
2022-11-10T07:36:36.757Z,100128.72
2022-11-10T07:39:03.597Z,100130.31
2022-11-10T07:41:30.269Z,100124.06
2022-11-10T07:43:56.954Z,100110.38
2022-11-10T07:46:23.594Z,100111.84
2022-11-10T07:48:50.343Z,100115.97
2022-11-10T07:51:16.988Z,100111.38
2022-11-10T07:53:44.475Z,100116.66
2022-11-10T07:56:11.207Z,100106.38
2022-11-10T07:58:37.914Z,100103.88
2022-11-10T08:01:04.939Z,100095.50
2022-11-10T08:03:31.607Z,100100.72
2022-11-10T08:05:58.211Z,100104.06
2022-11-10T08:08:24.956Z,100104.91
2022-11-10T08:10:51.588Z,100102.16
2022-11-10T08:13:18.220Z,100109.84
2022-11-10T08:15:44.860Z,100103.03
2022-11-10T08:18:22.596Z,100111.47
2022-11-10T08:20:49.639Z,100100.19
2022-11-10T08:23:16.606Z,100111.13
2022-11-10T08:25:43.693Z,100107.59
2022-11-10T08:28:12.286Z,100116.34
2022-11-10T08:30:40.919Z,100113.00
2022-11-10T08:33:09.735Z,100113.22
2022-11-10T08:35:39.554Z,100108.78
2022-11-10T08:38:09.432Z,100117.41
2022-11-10T08:40:37.033Z,100112.25
2022-11-10T08:43:04.278Z,100124.94
2022-11-10T08:45:30.896Z,100120.47
2022-11-10T08:48:08.771Z,100121.28
2022-11-10T08:50:35.763Z,100121.03
2022-11-10T08:53:04.235Z,100133.25
2022-11-10T08:55:31.067Z,100121.75
2022-11-10T08:58:01.876Z,100110.75
2022-11-10T09:00:29.752Z,100095.84
2022-11-10T09:02:57.188Z,100118.88
2022-11-10T09:05:24.007Z,100123.28
2022-11-10T09:07:51.421Z,100112.91
2022-11-10T09:10:18.128Z,100110.34
2022-11-10T09:12:45.188Z,100113.38
2022-11-10T09:15:12.928Z,100123.56
2022-11-10T09:17:40.786Z,100128.75
2022-11-10T09:20:09.133Z,100126.97
2022-11-10T09:22:36.677Z,100122.84
2022-11-10T09:25:04.388Z,100119.91
2022-11-10T09:27:31.349Z,100127.44
2022-11-10T09:29:58.001Z,100128.72
2022-11-10T09:32:24.590Z,100119.28
2022-11-10T09:34:53.051Z,100120.22
2022-11-10T09:37:20.115Z,100110.59
2022-11-10T09:39:46.720Z,100119.66
2022-11-10T09:42:33.343Z,100123.13
2022-11-10T09:45:17.499Z,100124.22
2022-11-10T09:48:07.584Z,100121.03
2022-11-10T09:50:49.542Z,100127.34
2022-11-10T09:53:21.078Z,100119.38
2022-11-10T09:55:55.441Z,100120.59
2022-11-10T09:58:25.818Z,100115.28
2022-11-10T10:01:34.971Z,100123.66
2022-11-10T10:04:26.087Z,100125.81
2022-11-10T10:07:12.202Z,100117.34
2022-11-10T10:10:02.393Z,100121.38
2022-11-10T10:13:13.834Z,100128.47
2022-11-10T10:16:15.768Z,100127.50
2022-11-10T10:18:45.156Z,100124.84
2022-11-10T10:21:27.944Z,100122.22
2022-11-10T10:24:10.413Z,100124.69
2022-11-10T10:26:41.378Z,100128.28
2022-11-10T10:29:10.485Z,100134.38
2022-11-10T10:31:43.840Z,100129.81
2022-11-10T10:34:38.482Z,100127.41
2022-11-10T10:37:05.253Z,100123.78
2022-11-10T10:39:37.343Z,100133.59
2022-11-10T10:42:09.703Z,100132.13
2022-11-10T10:44:36.398Z,100127.75
2022-11-10T10:47:04.504Z,100125.03
2022-11-10T10:49:36.342Z,100136.88
2022-11-10T10:52:16.219Z,100130.88
2022-11-10T10:54:43.687Z,100132.63
2022-11-10T10:57:19.418Z,100129.06
2022-11-10T10:59:46.305Z,100132.44
2022-11-10T11:02:28.680Z,100118.69
2022-11-10T11:05:10.872Z,100137.00
2022-11-10T11:07:38.387Z,100148.19
2022-11-10T11:10:22.051Z,100140.47
2022-11-10T11:12:48.711Z,100139.75
2022-11-10T11:15:29.532Z,100142.28
2022-11-10T11:18:04.631Z,100135.50
2022-11-10T11:20:55.451Z,100146.00
2022-11-10T11:23:54.132Z,100148.75
2022-11-10T11:26:45.036Z,100149.78
2022-11-10T11:29:26.864Z,100148.03
2022-11-10T11:32:19.573Z,100153.13
2022-11-10T11:34:55.373Z,100155.84
2022-11-10T11:37:41.159Z,100155.84
2022-11-10T11:40:40.095Z,100153.44
2022-11-10T11:43:31.504Z,100161.28
2022-11-10T11:46:16.849Z,100148.34
2022-11-10T11:48:43.443Z,100162.13
2022-11-10T11:51:23.026Z,100149.16
2022-11-10T11:54:21.901Z,100152.75
2022-11-10T11:56:50.292Z,100152.13
2022-11-10T11:59:45.127Z,100152.81
2022-11-10T12:02:33.290Z,100155.47
2022-11-10T12:05:17.906Z,100147.53
2022-11-10T12:07:55.713Z,100137.16
2022-11-10T12:10:56.534Z,100149.94
2022-11-10T12:13:42.508Z,100148.22
2022-11-10T12:16:30.088Z,100149.22
2022-11-10T12:19:02.772Z,100146.34
2022-11-10T12:22:06.373Z,100150.72
2022-11-10T12:24:41.914Z,100148.31
2022-11-10T12:27:17.488Z,100147.56
2022-11-10T12:29:48.602Z,100143.41
2022-11-10T12:32:18.101Z,100158.00
2022-11-10T12:34:49.841Z,100142.34
2022-11-10T12:37:27.558Z,100157.84
2022-11-10T12:40:15.273Z,100161.53
2022-11-10T12:42:46.913Z,100165.84
2022-11-10T12:45:23.930Z,100158.94
2022-11-10T12:47:50.647Z,100152.28
2022-11-10T12:50:39.131Z,100159.97
2022-11-10T12:53:16.179Z,100158.28
2022-11-10T12:55:49.284Z,100160.84
2022-11-10T12:58:16.063Z,100157.44
2022-11-10T13:00:45.820Z,100163.34
2022-11-10T13:03:31.347Z,100161.53
2022-11-10T16:22:43.175Z,100226.97
2022-11-10T16:25:20.540Z,100219.06
2022-11-10T16:27:49.479Z,100231.75
2022-11-10T16:30:16.497Z,100223.75
2022-11-10T16:32:43.099Z,100228.97
2022-11-10T16:35:13.952Z,100224.69
2022-11-10T16:37:43.604Z,100222.66
2022-11-10T16:40:18.394Z,100221.00
2022-11-10T16:42:45.038Z,100226.22
2022-11-10T16:45:22.788Z,100228.03
2022-11-10T16:47:51.708Z,100221.09
2022-11-10T16:50:26.720Z,100231.47
2022-11-10T16:52:53.401Z,100222.06
2022-11-10T16:55:20.048Z,100221.19
2022-11-10T16:57:47.899Z,100240.19
2022-11-10T17:00:15.668Z,100242.81
2022-11-10T17:02:45.202Z,100232.19
2022-11-10T17:05:14.969Z,100215.22
2022-11-10T17:07:41.757Z,100248.03
2022-11-10T17:10:16.429Z,100226.47
2022-11-10T17:12:43.247Z,100235.59
2022-11-10T17:15:12.505Z,100236.63
2022-11-10T17:17:40.643Z,100231.66
2022-11-10T17:20:08.293Z,100235.72
2022-11-10T17:22:36.462Z,100212.53
2022-11-10T17:25:04.282Z,100239.22
2022-11-10T17:27:36.769Z,100237.47
2022-11-10T17:30:04.927Z,100232.31
2022-11-10T17:32:57.975Z,100235.78
2022-11-10T17:35:18.286Z,100237.63
2022-11-10T17:37:49.342Z,100239.44
2022-11-10T17:40:21.813Z,100253.25
2022-11-10T17:42:48.941Z,100248.88
2022-11-10T17:45:29.933Z,100247.16
2022-11-10T17:47:57.617Z,100243.88
2022-11-10T17:51:01.760Z,100240.19
2022-11-10T17:53:28.547Z,100229.88
2022-11-10T17:55:55.431Z,100248.94
2022-11-10T17:58:22.701Z,100229.13
2022-11-10T18:00:49.600Z,100234.28
2022-11-10T18:03:19.372Z,100241.06
2022-11-10T18:05:46.220Z,100228.75
2022-11-10T18:08:13.876Z,100232.19
2022-11-10T18:10:48.727Z,100228.88
2022-11-10T18:13:15.885Z,100228.88
2022-11-10T18:15:43.846Z,100229.00
2022-11-10T18:18:12.334Z,100239.38
2022-11-10T18:20:39.974Z,100247.97
2022-11-10T18:23:08.431Z,100247.97
2022-11-10T18:25:35.702Z,100258.31
2022-11-10T18:28:02.357Z,100239.44
2022-11-10T18:30:34.732Z,100241.09
2022-11-10T18:33:05.807Z,100248.09
2022-11-10T18:35:35.528Z,100243.66
2022-11-10T18:38:02.235Z,100246.25
2022-11-10T18:40:28.937Z,100247.13
2022-11-10T18:42:59.111Z,100239.50
2022-11-10T18:45:27.634Z,100237.47
2022-11-10T18:47:54.416Z,100231.25
2022-11-10T18:50:21.418Z,100231.34
2022-11-10T18:52:48.824Z,100216.19
2022-11-10T18:55:17.657Z,100212.69
2022-11-10T18:57:44.698Z,100218.31
2022-11-10T19:00:12.740Z,100214.78
2022-11-10T19:02:39.570Z,100214.97
2022-11-10T19:05:06.796Z,100215.84
2022-11-10T19:07:33.430Z,100218.47
2022-11-10T19:10:00.176Z,100225.44
2022-11-10T19:12:26.956Z,100214.81
2022-11-10T19:14:53.847Z,100217.91
2022-11-10T19:17:20.676Z,100221.19
2022-11-10T19:19:50.835Z,100210.31
2022-11-10T19:22:20.447Z,100219.03
2022-11-10T19:25:06.213Z,100199.06
2022-11-10T19:27:33.798Z,100202.25
2022-11-10T19:30:00.418Z,100210.19
2022-11-10T19:32:27.191Z,100210.19
2022-11-10T19:34:54.020Z,100204.97
2022-11-10T19:37:20.935Z,100206.47
2022-11-10T19:39:47.591Z,100198.75
2022-11-10T19:42:14.465Z,100207.16
2022-11-10T19:44:41.181Z,100207.03
2022-11-10T19:47:07.917Z,100199.44
2022-11-10T19:49:39.046Z,100198.59
2022-11-10T19:52:05.747Z,100196.63
2022-11-10T19:54:32.493Z,100186.25
2022-11-10T19:56:59.336Z,100186.03
2022-11-10T19:59:26.081Z,100188.28
2022-11-10T20:01:53.977Z,100183.03
2022-11-10T20:04:20.733Z,100189.03
2022-11-10T20:06:47.528Z,100188.38
2022-11-10T20:09:14.352Z,100204.47
2022-11-10T20:11:41.174Z,100204.75
2022-11-10T20:14:07.830Z,100190.53
2022-11-10T20:16:34.678Z,100188.16
2022-11-10T20:19:01.393Z,100191.59
2022-11-10T20:21:28.120Z,100183.66
2022-11-10T20:23:56.246Z,100187.28
2022-11-10T20:26:47.413Z,100159.28
2022-11-10T20:29:14.153Z,100173.25
2022-11-10T20:31:40.946Z,100187.09
2022-11-10T20:34:07.731Z,100179.13
2022-11-10T20:36:34.433Z,100201.31
2022-11-10T20:39:01.590Z,100183.03
2022-11-10T20:41:29.709Z,100192.00
2022-11-10T20:43:56.612Z,100174.94
2022-11-10T20:49:10.752Z,100186.78
2022-11-10T20:51:37.648Z,100199.03
2022-11-10T20:54:04.373Z,100197.25
2022-11-10T20:56:31.094Z,100193.75
2022-11-10T20:58:58.367Z,100190.44
2022-11-10T21:01:25.500Z,100201.41
2022-11-10T21:03:59.909Z,100195.94
2022-11-10T21:06:26.512Z,100200.16
2022-11-10T21:08:54.338Z,100200.94
2022-11-10T21:11:39.544Z,100201.84
2022-11-10T21:14:06.179Z,100205.19
2022-11-10T21:16:32.907Z,100201.84
2022-11-10T21:19:00.847Z,100215.63
2022-11-10T21:21:34.551Z,100210.59
2022-11-10T21:24:05.787Z,100217.22
2022-11-10T21:26:34.326Z,100218.31
2022-11-10T21:29:01.949Z,100219.88
2022-11-10T21:31:30.224Z,100214.69
2022-11-10T21:34:00.221Z,100218.19
2022-11-10T21:36:29.651Z,100221.81
2022-11-10T21:39:03.496Z,100211.72
2022-11-10T21:41:30.180Z,100211.66
2022-11-10T21:43:57.160Z,100215.19
2022-11-10T21:46:24.396Z,100215.16
2022-11-10T21:48:51.476Z,100218.56
2022-11-10T21:51:19.876Z,100216.03
2022-11-10T21:53:46.920Z,100213.63
2022-11-10T21:56:13.697Z,100204.88
2022-11-10T21:58:40.794Z,100217.81
2022-11-10T22:01:19.266Z,100207.50
2022-11-10T22:03:46.375Z,100210.09
2022-11-10T22:06:15.265Z,100217.31
2022-11-10T22:08:44.225Z,100218.16
2022-11-10T22:11:39.642Z,100213.78
2022-11-10T22:14:31.976Z,100208.72
2022-11-10T22:17:18.262Z,100213.09
2022-11-10T22:19:45.163Z,100210.28
2022-11-10T22:22:15.539Z,100207.88
2022-11-10T22:24:42.241Z,100207.22
2022-11-10T22:27:09.034Z,100208.88
2022-11-10T22:29:36.370Z,100213.13
2022-11-10T22:32:03.433Z,100213.09
2022-11-10T22:34:30.277Z,100213.69
2022-11-10T22:36:57.265Z,100224.19
2022-11-10T22:39:43.937Z,100211.34
2022-11-10T22:42:32.277Z,100216.47
2022-11-10T22:44:59.178Z,100213.19
2022-11-10T22:47:26.044Z,100220.09
2022-11-10T22:49:52.987Z,100222.41
2022-11-10T22:52:19.606Z,100209.00
2022-11-10T22:54:46.363Z,100225.16
2022-11-10T22:57:13.094Z,100212.84
2022-11-10T22:59:39.748Z,100217.41
2022-11-10T23:02:06.345Z,100217.31
2022-11-10T23:04:33.037Z,100216.22
2022-11-10T23:06:59.726Z,100229.38
2022-11-10T23:09:26.432Z,100218.44
2022-11-10T23:11:53.114Z,100223.94
2022-11-10T23:14:19.815Z,100222.25
2022-11-10T23:16:46.461Z,100222.03
2022-11-10T23:19:13.196Z,100213.69
2022-11-10T23:21:39.866Z,100213.56
2022-11-10T23:24:06.923Z,100212.94
2022-11-10T23:26:36.381Z,100219.72
2022-11-10T23:29:03.110Z,100208.25
2022-11-10T23:31:29.752Z,100207.16
2022-11-10T23:33:57.616Z,100212.41
2022-11-10T23:36:26.227Z,100214.81
2022-11-10T23:38:54.532Z,100214.69
2022-11-10T23:41:26.251Z,100220.31
2022-11-10T23:43:53.984Z,100228.84
2022-11-10T23:46:20.698Z,100223.88
2022-11-10T23:48:47.376Z,100228.25
2022-11-10T23:51:14.949Z,100232.97
2022-11-10T23:53:41.885Z,100240.69
2022-11-10T23:56:13.557Z,100244.94
2022-11-10T23:58:40.788Z,100245.91
